Time;durP1;ratioP1;P1;durP2;ratioP2;P2;SDS_P1;SDS_P2;PMS_P1;PMS_P2;Temp;Humidity;BMP_temperature;BMP_pressure;BME280_temperature;BME280_humidity;BME280_pressure;Samples;Min_cycle;Max_cycle;Signal;HPM_P1;HPM_P2
2024/01/11 00:00:19;;;;;;;16.85;15.35;;;;;;;;;;6118560;29;20482;-96
2024/01/11 00:03:21;;;;;;;14.15;13.23;;;;;;;;;;6125831;28;20054;-96
2024/01/11 00:06:23;;;;;;;18.38;16.48;;;;;;;;;;6124116;28;20064;-96
2024/01/11 00:09:25;;;;;;;18.52;16.27;;;;;;;;;;6121433;29;20047;-96
2024/01/11 00:12:27;;;;;;;17.95;16.20;;;;;;;;;;6131905;28;20079;-96
2024/01/11 00:15:29;;;;;;;18.48;17.02;;;;;;;;;;6116757;29;20414;-96
2024/01/11 00:18:31;;;;;;;17.73;16.55;;;;;;;;;;6119040;29;20059;-96
2024/01/11 00:21:33;;;;;;;18.63;16.83;;;;;;;;;;6119566;29;20043;-96
2024/01/11 00:24:34;;;;;;;17.73;15.00;;;;;;;;;;6112318;29;20044;-96
2024/01/11 00:27:40;;;;;;;16.02;14.13;;;;;;;;;;6115128;29;20490;-96
2024/01/11 00:30:42;;;;;;;21.20;15.90;;;;;;;;;;6118071;29;20672;-96
2024/01/11 00:33:44;;;;;;;17.20;15.80;;;;;;;;;;6111209;29;20074;-96
2024/01/11 00:36:46;;;;;;;19.88;14.77;;;;;;;;;;6118368;29;20134;-96
2024/01/11 00:39:48;;;;;;;18.95;17.25;;;;;;;;;;6122050;29;20051;-96
2024/01/11 00:42:50;;;;;;;18.00;16.23;;;;;;;;;;6122273;29;20050;-96
2024/01/11 00:45:52;;;;;;;17.48;16.15;;;;;;;;;;6123644;28;20027;-96
2024/01/11 00:48:54;;;;;;;14.73;13.77;;;;;;;;;;6122842;28;20059;-96
2024/01/11 00:51:57;;;;;;;18.13;16.50;;;;;;;;;;6122720;29;20040;-96
2024/01/11 00:54:59;;;;;;;18.70;16.88;;;;;;;;;;6121590;29;20525;-96
2024/01/11 00:58:02;;;;;;;16.45;15.30;;;;;;;;;;6120797;29;20051;-96
2024/01/11 01:01:08;;;;;;;16.48;15.10;;;;;;;;;;6119479;29;20130;-96
2024/01/11 01:04:10;;;;;;;17.27;16.23;;;;;;;;;;6117531;29;20640;-96
2024/01/11 01:07:12;;;;;;;18.42;16.90;;;;;;;;;;6129324;29;20462;-96
2024/01/11 01:10:14;;;;;;;17.48;16.20;;;;;;;;;;6116635;29;20047;-96
2024/01/11 01:13:17;;;;;;;17.60;16.35;;;;;;;;;;6120496;29;20631;-96
2024/01/11 01:16:19;;;;;;;17.17;16.05;;;;;;;;;;6115355;29;20079;-96
2024/01/11 01:19:21;;;;;;;17.80;16.08;;;;;;;;;;6120022;29;20529;-96
2024/01/11 01:22:23;;;;;;;16.23;14.93;;;;;;;;;;6118449;29;20133;-96
2024/01/11 01:25:25;;;;;;;18.05;16.65;;;;;;;;;;6120972;29;20062;-96
2024/01/11 01:28:27;;;;;;;19.00;14.77;;;;;;;;;;6128402;28;20047;-96
2024/01/11 01:31:29;;;;;;;17.88;16.33;;;;;;;;;;6127102;28;20062;-96
2024/01/11 01:34:31;;;;;;;13.25;12.15;;;;;;;;;;6124647;29;20043;-96
2024/01/11 01:37:33;;;;;;;12.70;11.65;;;;;;;;;;6120673;29;20043;-96
2024/01/11 01:40:37;;;;;;;13.18;12.20;;;;;;;;;;6114823;29;20048;-96
2024/01/11 01:43:38;;;;;;;14.02;13.02;;;;;;;;;;6122516;29;20067;-96
2024/01/11 01:46:40;;;;;;;15.05;13.65;;;;;;;;;;6122687;29;20624;-96
2024/01/11 01:49:43;;;;;;;17.38;15.30;;;;;;;;;;6119712;29;20147;-96
2024/01/11 01:52:45;;;;;;;14.75;13.38;;;;;;;;;;6106673;29;20063;-96
2024/01/11 01:55:48;;;;;;;16.25;15.02;;;;;;;;;;6120071;29;20039;-96
2024/01/11 01:58:51;;;;;;;14.57;13.32;;;;;;;;;;6108902;29;20044;-96
2024/01/11 02:01:54;;;;;;;15.20;14.25;;;;;;;;;;6120309;29;20044;-96
2024/01/11 02:04:56;;;;;;;20.00;15.43;;;;;;;;;;6119660;29;20051;-96
2024/01/11 02:08:00;;;;;;;14.93;13.90;;;;;;;;;;6122502;29;20305;-96
2024/01/11 02:11:03;;;;;;;17.58;16.00;;;;;;;;;;6124720;28;20043;-96
2024/01/11 02:14:05;;;;;;;19.83;17.35;;;;;;;;;;6127840;28;20051;-96
2024/01/11 02:17:06;;;;;;;19.58;17.65;;;;;;;;;;6120159;29;20079;-96
2024/01/11 02:20:09;;;;;;;17.98;16.38;;;;;;;;;;6121521;29;20059;-96
2024/01/11 02:23:14;;;;;;;14.38;13.18;;;;;;;;;;6122785;29;20043;-96
2024/01/11 02:26:16;;;;;;;16.30;14.93;;;;;;;;;;6120103;29;20494;-96
2024/01/11 02:29:18;;;;;;;17.85;16.13;;;;;;;;;;6123061;29;20507;-96
2024/01/11 02:32:20;;;;;;;15.90;14.60;;;;;;;;;;6131881;28;20449;-96
2024/01/11 02:35:22;;;;;;;16.58;14.90;;;;;;;;;;6121292;29;20055;-96
2024/01/11 02:38:25;;;;;;;17.15;14.68;;;;;;;;;;6135561;29;20166;-96
2024/01/11 02:41:28;;;;;;;16.90;15.05;;;;;;;;;;6117459;29;20058;-96
2024/01/11 02:44:30;;;;;;;16.50;15.45;;;;;;;;;;6129940;29;20055;-96
2024/01/11 02:47:31;;;;;;;29.55;26.75;;;;;;;;;;6113498;29;20043;-96
2024/01/11 02:50:33;;;;;;;14.98;14.05;;;;;;;;;;6124156;29;20058;-96
2024/01/11 02:53:36;;;;;;;17.92;16.45;;;;;;;;;;6126420;28;20039;-96
2024/01/11 02:56:38;;;;;;;18.80;17.02;;;;;;;;;;6120726;29;20276;-96
2024/01/11 02:59:40;;;;;;;19.33;17.80;;;;;;;;;;6135222;28;20200;-96
2024/01/11 03:02:42;;;;;;;16.15;15.15;;;;;;;;;;6120802;29;20652;-96
2024/01/11 03:05:44;;;;;;;16.25;14.95;;;;;;;;;;6115762;29;20035;-96
2024/01/11 03:08:46;;;;;;;18.65;15.98;;;;;;;;;;6119997;29;20058;-96
2024/01/11 03:11:48;;;;;;;18.17;16.98;;;;;;;;;;6117657;29;20067;-96
2024/01/11 03:14:50;;;;;;;19.67;17.80;;;;;;;;;;6120389;29;20455;-96
2024/01/11 03:17:52;;;;;;;19.00;17.65;;;;;;;;;;6116220;29;20520;-96
2024/01/11 03:20:54;;;;;;;18.10;16.25;;;;;;;;;;6117194;29;20052;-96
2024/01/11 03:23:56;;;;;;;18.15;16.42;;;;;;;;;;6120671;29;20036;-96
2024/01/11 03:26:58;;;;;;;16.02;14.45;;;;;;;;;;6118596;29;20525;-96
2024/01/11 03:30:00;;;;;;;15.52;14.25;;;;;;;;;;6116499;29;20714;-96
2024/01/11 03:33:02;;;;;;;14.90;13.70;;;;;;;;;;6114627;29;20048;-96
2024/01/11 03:36:11;;;;;;;17.20;15.10;;;;;;;;;;6125671;28;20099;-96
2024/01/11 03:39:13;;;;;;;17.20;15.40;;;;;;;;;;6123920;28;20502;-96
2024/01/11 03:42:15;;;;;;;18.35;16.63;;;;;;;;;;6120167;29;20222;-96
2024/01/11 03:45:20;;;;;;;21.60;19.48;;;;;;;;;;6119393;29;20067;-96
2024/01/11 03:48:22;;;;;;;15.00;13.80;;;;;;;;;;6119756;29;20048;-96
2024/01/11 03:51:24;;;;;;;17.25;15.65;;;;;;;;;;6114782;29;20035;-96
2024/01/11 03:54:25;;;;;;;18.23;16.73;;;;;;;;;;6119176;29;20553;-96
2024/01/11 03:57:28;;;;;;;16.92;15.30;;;;;;;;;;6121943;29;20502;-96
2024/01/11 04:00:30;;;;;;;22.73;15.50;;;;;;;;;;6118456;29;20047;-96
2024/01/11 04:03:32;;;;;;;19.95;17.80;;;;;;;;;;6113203;29;20040;-96
2024/01/11 04:06:34;;;;;;;17.17;15.45;;;;;;;;;;6113360;29;20047;-96
2024/01/11 04:09:42;;;;;;;17.92;15.38;;;;;;;;;;6110944;29;20051;-96
2024/01/11 04:12:44;;;;;;;18.27;16.40;;;;;;;;;;6113455;29;20071;-96
2024/01/11 04:15:47;;;;;;;16.75;15.23;;;;;;;;;;6123472;29;20055;-96
2024/01/11 04:18:48;;;;;;;17.30;15.80;;;;;;;;;;6133364;28;20305;-96
2024/01/11 04:21:51;;;;;;;19.02;17.48;;;;;;;;;;6123255;28;20040;-96
2024/01/11 04:24:53;;;;;;;21.40;18.92;;;;;;;;;;6123705;29;20079;-96
2024/01/11 04:27:54;;;;;;;18.27;17.02;;;;;;;;;;6122045;29;20160;-96
2024/01/11 04:30:56;;;;;;;18.10;16.58;;;;;;;;;;6124890;29;20414;-96
2024/01/11 04:33:58;;;;;;;17.85;16.42;;;;;;;;;;6120133;29;20051;-96
2024/01/11 04:37:01;;;;;;;18.80;16.92;;;;;;;;;;6118022;29;20126;-96
2024/01/11 04:40:03;;;;;;;28.90;19.88;;;;;;;;;;6122879;29;20062;-96
2024/01/11 04:43:07;;;;;;;20.85;19.20;;;;;;;;;;6118233;29;20043;-96
2024/01/11 04:46:24;;;;;;;20.27;18.27;;;;;;;;;;6123151;29;20055;-96
2024/01/11 04:49:26;;;;;;;21.90;19.95;;;;;;;;;;6125797;29;20058;-96
2024/01/11 04:52:28;;;;;;;22.65;20.58;;;;;;;;;;6125237;29;20052;-96
2024/01/11 04:55:30;;;;;;;19.20;17.63;;;;;;;;;;6122737;29;20048;-96
2024/01/11 04:58:32;;;;;;;17.45;15.95;;;;;;;;;;6118711;29;20123;-96
2024/01/11 05:01:34;;;;;;;19.67;17.70;;;;;;;;;;6134941;28;20031;-96
2024/01/11 05:04:36;;;;;;;20.17;18.30;;;;;;;;;;6125772;29;20059;-96
2024/01/11 05:07:38;;;;;;;20.40;18.55;;;;;;;;;;6125370;29;20063;-96
2024/01/11 05:10:40;;;;;;;16.75;15.38;;;;;;;;;;6125993;29;20039;-96
2024/01/11 05:13:42;;;;;;;20.48;18.70;;;;;;;;;;6117882;29;20075;-96
2024/01/11 05:16:44;;;;;;;16.63;15.38;;;;;;;;;;6126994;29;20055;-96
2024/01/11 05:19:46;;;;;;;16.50;14.98;;;;;;;;;;6128901;29;20046;-96
2024/01/11 05:22:48;;;;;;;16.25;14.55;;;;;;;;;;6128125;29;20100;-96
2024/01/11 05:25:50;;;;;;;15.63;14.48;;;;;;;;;;6123809;29;20031;-96
2024/01/11 05:28:52;;;;;;;19.02;17.00;;;;;;;;;;6122153;29;20054;-96
2024/01/11 05:31:54;;;;;;;15.30;14.38;;;;;;;;;;6128066;29;20113;-96
2024/01/11 05:34:57;;;;;;;17.58;16.27;;;;;;;;;;6125541;29;20051;-96
2024/01/11 05:37:59;;;;;;;17.35;15.23;;;;;;;;;;6124269;29;20565;-96
2024/01/11 05:41:01;;;;;;;18.10;16.55;;;;;;;;;;6123484;29;20046;-96
2024/01/11 05:44:04;;;;;;;17.75;16.05;;;;;;;;;;6136840;28;20024;-96
2024/01/11 05:47:06;;;;;;;17.88;16.60;;;;;;;;;;6123057;29;20668;-96
2024/01/11 05:50:08;;;;;;;21.67;17.42;;;;;;;;;;6125326;29;20528;-96
2024/01/11 05:53:11;;;;;;;17.50;15.50;;;;;;;;;;6118467;29;20047;-96
2024/01/11 05:56:13;;;;;;;25.52;15.93;;;;;;;;;;6098988;29;20043;-96
2024/01/11 05:59:15;;;;;;;17.55;15.88;;;;;;;;;;6125828;29;20509;-96
2024/01/11 06:02:18;;;;;;;14.23;13.40;;;;;;;;;;6125171;29;20051;-96
2024/01/11 06:05:20;;;;;;;14.15;13.05;;;;;;;;;;6124164;29;20048;-96
2024/01/11 06:08:22;;;;;;;14.07;12.68;;;;;;;;;;6122848;29;20490;-96
2024/01/11 06:11:24;;;;;;;16.02;14.52;;;;;;;;;;6124926;29;20212;-96
2024/01/11 06:14:26;;;;;;;14.88;13.88;;;;;;;;;;6124802;29;20044;-96
2024/01/11 06:17:28;;;;;;;15.52;14.13;;;;;;;;;;6093415;29;20593;-96
2024/01/11 06:20:31;;;;;;;15.32;14.00;;;;;;;;;;6124871;29;20059;-96
2024/01/11 06:23:32;;;;;;;12.90;12.10;;;;;;;;;;6123280;29;20048;-96
2024/01/11 06:26:35;;;;;;;14.07;12.35;;;;;;;;;;6129140;28;20027;-96
2024/01/11 06:29:36;;;;;;;15.23;13.75;;;;;;;;;;6125715;29;20047;-96
2024/01/11 06:32:39;;;;;;;13.32;12.30;;;;;;;;;;6122637;29;20055;-96
2024/01/11 06:35:41;;;;;;;15.32;13.98;;;;;;;;;;6116174;29;20079;-96
2024/01/11 06:38:43;;;;;;;20.50;13.23;;;;;;;;;;6120525;29;20126;-96
2024/01/11 06:41:45;;;;;;;18.05;16.48;;;;;;;;;;6121699;29;20131;-96
2024/01/11 06:44:48;;;;;;;15.07;13.63;;;;;;;;;;6128856;29;20056;-96
2024/01/11 06:47:50;;;;;;;13.88;12.85;;;;;;;;;;6121992;29;20051;-96
2024/01/11 06:50:52;;;;;;;16.10;14.20;;;;;;;;;;6119114;29;20142;-96
2024/01/11 06:53:54;;;;;;;17.55;15.25;;;;;;;;;;6123518;29;20478;-96
2024/01/11 06:56:56;;;;;;;15.35;13.80;;;;;;;;;;6123564;29;20422;-96
2024/01/11 06:59:58;;;;;;;14.07;12.65;;;;;;;;;;6126888;29;20044;-96
2024/01/11 07:03:02;;;;;;;15.25;13.85;;;;;;;;;;6132063;28;20525;-96
2024/01/11 07:06:04;;;;;;;14.48;13.48;;;;;;;;;;6120115;29;20634;-96
2024/01/11 07:09:06;;;;;;;15.68;14.43;;;;;;;;;;6133763;28;20042;-96
2024/01/11 07:12:08;;;;;;;12.82;11.57;;;;;;;;;;6124814;28;20055;-96
2024/01/11 07:15:10;;;;;;;20.58;14.27;;;;;;;;;;6125027;29;20051;-95
2024/01/11 07:18:13;;;;;;;14.45;13.15;;;;;;;;;;6119221;29;20050;-96
2024/01/11 07:21:33;;;;;;;14.15;12.68;;;;;;;;;;6119430;29;20051;-96
2024/01/11 07:24:39;;;;;;;15.15;12.48;;;;;;;;;;6106140;29;20216;-96
2024/01/11 07:27:41;;;;;;;13.38;10.98;;;;;;;;;;6125176;29;20055;-96
2024/01/11 07:30:43;;;;;;;13.50;12.40;;;;;;;;;;6123998;29;20051;-96
2024/01/11 07:33:45;;;;;;;11.60;10.82;;;;;;;;;;6122852;29;20122;-96
2024/01/11 07:36:48;;;;;;;12.95;11.75;;;;;;;;;;6124440;29;20572;-96
2024/01/11 07:39:50;;;;;;;13.20;12.30;;;;;;;;;;6125323;29;20044;-96
2024/01/11 07:42:53;;;;;;;13.82;12.80;;;;;;;;;;6133355;29;20039;-96
2024/01/11 07:45:58;;;;;;;15.48;10.40;;;;;;;;;;6122607;29;20048;-96
2024/01/11 07:49:00;;;;;;;11.95;10.85;;;;;;;;;;6118134;29;20044;-96
2024/01/11 07:52:02;;;;;;;11.48;10.57;;;;;;;;;;6134006;28;20023;-96
2024/01/11 07:55:12;;;;;;;12.85;11.85;;;;;;;;;;6122455;29;20826;-96
2024/01/11 07:58:15;;;;;;;12.40;11.40;;;;;;;;;;6118092;29;20040;-96
2024/01/11 08:01:17;;;;;;;13.13;12.15;;;;;;;;;;6116935;29;20039;-96
2024/01/11 08:04:20;;;;;;;17.67;12.65;;;;;;;;;;6124438;29;20035;-96
2024/01/11 08:07:22;;;;;;;13.73;11.68;;;;;;;;;;6123100;29;20039;-96
2024/01/11 08:10:24;;;;;;;17.33;14.82;;;;;;;;;;6113249;29;20525;-96
2024/01/11 08:13:27;;;;;;;12.23;11.45;;;;;;;;;;6124133;29;20051;-96
2024/01/11 08:16:29;;;;;;;13.73;11.50;;;;;;;;;;6122803;29;20135;-96
2024/01/11 08:19:32;;;;;;;10.80;10.13;;;;;;;;;;6116548;29;20541;-96
2024/01/11 08:22:36;;;;;;;13.07;11.90;;;;;;;;;;6114759;29;20050;-96
2024/01/11 08:25:38;;;;;;;15.25;13.77;;;;;;;;;;6121987;29;20048;-96
2024/01/11 08:28:42;;;;;;;13.10;11.50;;;;;;;;;;6122820;29;20059;-95
2024/01/11 08:31:43;;;;;;;12.18;11.23;;;;;;;;;;6128152;29;20079;-96
2024/01/11 08:34:45;;;;;;;11.82;11.10;;;;;;;;;;6133602;28;20499;-96
2024/01/11 08:37:49;;;;;;;12.45;11.50;;;;;;;;;;6117193;29;20509;-96
2024/01/11 08:40:51;;;;;;;15.85;14.27;;;;;;;;;;6118999;29;20533;-96
2024/01/11 08:43:53;;;;;;;12.93;11.75;;;;;;;;;;6098654;29;20459;-96
2024/01/11 08:46:57;;;;;;;18.75;15.65;;;;;;;;;;6125557;28;20047;-96
2024/01/11 08:49:59;;;;;;;13.32;12.23;;;;;;;;;;6119801;29;20446;-96
2024/01/11 08:53:01;;;;;;;15.38;13.52;;;;;;;;;;6118780;29;20047;-96
2024/01/11 08:56:03;;;;;;;15.75;14.45;;;;;;;;;;6115712;29;20052;-95
2024/01/11 08:59:05;;;;;;;14.50;13.35;;;;;;;;;;6122523;29;20043;-96
2024/01/11 09:02:07;;;;;;;15.23;13.77;;;;;;;;;;6119154;29;20043;-96
2024/01/11 09:05:19;;;;;;;14.88;13.90;;;;;;;;;;6123999;29;20213;-96
2024/01/11 09:08:21;;;;;;;13.80;12.93;;;;;;;;;;6120635;29;20044;-96
2024/01/11 09:11:23;;;;;;;15.82;14.50;;;;;;;;;;6126162;29;20047;-96
2024/01/11 09:14:26;;;;;;;27.92;14.55;;;;;;;;;;6122344;29;20501;-96
2024/01/11 09:17:28;;;;;;;15.73;14.52;;;;;;;;;;6130538;28;20059;-96
2024/01/11 09:20:30;;;;;;;15.55;14.20;;;;;;;;;;6126611;29;20056;-96
2024/01/11 09:23:34;;;;;;;15.38;14.35;;;;;;;;;;6123171;29;20502;-96
2024/01/11 09:26:37;;;;;;;17.30;15.75;;;;;;;;;;6118746;28;20157;-96
2024/01/11 09:29:45;;;;;;;18.05;16.75;;;;;;;;;;6117222;29;20059;-96
2024/01/11 09:32:49;;;;;;;17.77;16.58;;;;;;;;;;6129337;28;20079;-95
2024/01/11 09:35:51;;;;;;;22.27;17.55;;;;;;;;;;6113619;29;20087;-96
2024/01/11 09:38:53;;;;;;;16.63;14.52;;;;;;;;;;6117635;29;20044;-95
2024/01/11 09:41:59;;;;;;;19.33;14.25;;;;;;;;;;6118681;29;20055;-96
2024/01/11 09:45:01;;;;;;;17.23;15.50;;;;;;;;;;6114753;29;20047;-96
2024/01/11 09:48:04;;;;;;;17.92;16.05;;;;;;;;;;6116482;29;20506;-96
2024/01/11 09:51:09;;;;;;;15.88;14.43;;;;;;;;;;6118164;29;20055;-96
2024/01/11 09:54:12;;;;;;;16.02;14.02;;;;;;;;;;6113096;29;20490;-96
2024/01/11 09:57:16;;;;;;;12.80;11.90;;;;;;;;;;6118737;29;20048;-95
2024/01/11 10:00:22;;;;;;;17.38;13.65;;;;;;;;;;6130758;28;20630;-96
2024/01/11 10:03:24;;;;;;;12.68;11.98;;;;;;;;;;6117778;29;20105;-95
2024/01/11 10:06:27;;;;;;;14.23;12.82;;;;;;;;;;6115162;29;20051;-96
2024/01/11 10:09:29;;;;;;;14.10;12.75;;;;;;;;;;6122871;29;20042;-96
2024/01/11 10:12:31;;;;;;;11.48;10.73;;;;;;;;;;6114650;29;20136;-96
2024/01/11 10:15:33;;;;;;;12.65;11.52;;;;;;;;;;6111677;29;20047;-96
2024/01/11 10:18:35;;;;;;;12.07;10.95;;;;;;;;;;6102485;29;20055;-96
2024/01/11 10:21:39;;;;;;;12.45;11.32;;;;;;;;;;6115823;29;20043;-96
2024/01/11 10:24:41;;;;;;;9.52;8.93;;;;;;;;;;6114364;29;20499;-96
2024/01/11 10:27:45;;;;;;;11.85;10.65;;;;;;;;;;6116298;29;20231;-96
2024/01/11 10:30:48;;;;;;;9.10;8.50;;;;;;;;;;6131814;29;20043;-96
2024/01/11 10:33:50;;;;;;;10.52;9.50;;;;;;;;;;6133527;29;20040;-95
2024/01/11 10:36:53;;;;;;;10.27;9.40;;;;;;;;;;6121101;29;20115;-95
2024/01/11 10:39:57;;;;;;;10.63;9.52;;;;;;;;;;6119071;29;20050;-96
2024/01/11 10:42:59;;;;;;;9.07;8.43;;;;;;;;;;6133838;28;20055;-96
2024/01/11 10:46:04;;;;;;;10.63;7.88;;;;;;;;;;6122078;29;20059;-96
2024/01/11 10:49:06;;;;;;;8.55;7.97;;;;;;;;;;6115818;29;20047;-96
2024/01/11 10:52:09;;;;;;;7.90;7.30;;;;;;;;;;6114337;29;20056;-96
2024/01/11 10:55:12;;;;;;;6.50;6.30;;;;;;;;;;6117006;29;20058;-95
2024/01/11 10:58:15;;;;;;;6.80;6.40;;;;;;;;;;6118490;29;20075;-96
2024/01/11 11:01:18;;;;;;;7.63;7.13;;;;;;;;;;6115414;29;20047;-96
2024/01/11 11:04:21;;;;;;;8.02;7.43;;;;;;;;;;6107348;29;20050;-95
2024/01/11 11:07:25;;;;;;;7.72;7.20;;;;;;;;;;6118712;29;20487;-96
2024/01/11 11:10:30;;;;;;;7.25;6.70;;;;;;;;;;6108903;29;20071;-96
2024/01/11 11:13:33;;;;;;;6.35;6.00;;;;;;;;;;6122651;29;20204;-96
2024/01/11 11:16:35;;;;;;;7.25;6.60;;;;;;;;;;6122360;29;20054;-96
2024/01/11 11:19:37;;;;;;;8.07;7.57;;;;;;;;;;6108541;29;20043;-96
2024/01/11 11:22:42;;;;;;;5.60;5.40;;;;;;;;;;6117276;29;20122;-96
2024/01/11 11:25:45;;;;;;;7.45;7.05;;;;;;;;;;6126462;28;20035;-94
2024/01/11 11:28:48;;;;;;;5.88;5.68;;;;;;;;;;6118314;29;20040;-95
2024/01/11 11:31:53;;;;;;;6.65;6.00;;;;;;;;;;6121593;29;20130;-94
2024/01/11 11:34:56;;;;;;;5.75;5.55;;;;;;;;;;6112703;29;20040;-92
2024/01/11 11:37:58;;;;;;;6.25;5.85;;;;;;;;;;6118776;29;20058;-93
2024/01/11 11:41:00;;;;;;;6.25;5.95;;;;;;;;;;6116331;29;20038;-93
2024/01/11 11:44:03;;;;;;;6.85;6.45;;;;;;;;;;6113213;29;20222;-93
2024/01/11 11:47:24;;;;;;;6.97;6.30;;;;;;;;;;6119916;29;20439;-93
2024/01/11 11:50:26;;;;;;;6.72;6.43;;;;;;;;;;6119682;29;20055;-93
2024/01/11 11:53:32;;;;;;;6.45;6.25;;;;;;;;;;6115789;29;20127;-93
2024/01/11 11:56:35;;;;;;;6.85;6.50;;;;;;;;;;6136159;29;20059;-93
2024/01/11 11:59:38;;;;;;;7.68;6.97;;;;;;;;;;6116331;29;20048;-93
2024/01/11 12:02:40;;;;;;;6.35;6.05;;;;;;;;;;6112887;29;20230;-91
2024/01/11 12:05:43;;;;;;;6.05;5.75;;;;;;;;;;6116552;29;20471;-92
2024/01/11 12:08:46;;;;;;;5.82;5.63;;;;;;;;;;6141385;29;20417;-91
2024/01/11 12:11:48;;;;;;;7.00;6.68;;;;;;;;;;6115079;29;20071;-94
2024/01/11 12:15:04;;;;;;;5.95;5.75;;;;;;;;;;6115302;29;20047;-90
2024/01/11 12:18:06;;;;;;;6.80;6.50;;;;;;;;;;6116262;29;20032;-91
2024/01/11 12:21:09;;;;;;;6.30;5.90;;;;;;;;;;6115857;29;20095;-91
2024/01/11 12:24:11;;;;;;;8.05;6.97;;;;;;;;;;6111683;29;20094;-93
2024/01/11 12:27:13;;;;;;;5.90;5.70;;;;;;;;;;6120140;29;20079;-93
2024/01/11 12:30:16;;;;;;;7.60;7.07;;;;;;;;;;6118912;29;20126;-91
2024/01/11 12:33:19;;;;;;;7.50;7.18;;;;;;;;;;6120368;29;20051;-91
2024/01/11 12:36:23;;;;;;;6.40;6.18;;;;;;;;;;6119900;29;20114;-92
2024/01/11 12:39:25;;;;;;;6.70;6.30;;;;;;;;;;6123032;29;20052;-93
2024/01/11 12:42:27;;;;;;;7.47;7.07;;;;;;;;;;6123432;29;20568;-91
2024/01/11 12:45:29;;;;;;;8.48;7.68;;;;;;;;;;6121813;29;20040;-93
2024/01/11 12:48:31;;;;;;;8.38;7.90;;;;;;;;;;6121621;29;20047;-93
2024/01/11 12:51:35;;;;;;;6.22;5.82;;;;;;;;;;6125632;29;20055;-90
2024/01/11 12:54:38;;;;;;;8.02;7.32;;;;;;;;;;6128863;29;20051;-92
2024/01/11 12:57:40;;;;;;;7.75;7.25;;;;;;;;;;6135964;29;20118;-92
2024/01/11 13:00:43;;;;;;;7.07;6.55;;;;;;;;;;6119028;29;20050;-92
2024/01/11 13:03:52;;;;;;;6.93;6.63;;;;;;;;;;6111877;29;20147;-92
2024/01/11 13:06:54;;;;;;;9.15;7.60;;;;;;;;;;6123598;29;20628;-92
2024/01/11 13:09:56;;;;;;;7.55;7.15;;;;;;;;;;6122163;29;20084;-91
2024/01/11 13:12:58;;;;;;;7.72;7.32;;;;;;;;;;6125278;29;20048;-91
2024/01/11 13:16:15;;;;;;;6.53;6.32;;;;;;;;;;6122501;29;20044;-91
2024/01/11 13:19:17;;;;;;;7.30;6.95;;;;;;;;;;6113193;29;20047;-92
2024/01/11 13:22:28;;;;;;;7.65;7.25;;;;;;;;;;6125271;29;20058;-92
2024/01/11 13:25:30;;;;;;;8.52;7.95;;;;;;;;;;6124382;29;20553;-93
2024/01/11 13:28:33;;;;;;;7.75;7.20;;;;;;;;;;6120634;29;20494;-92
2024/01/11 13:31:35;;;;;;;9.90;9.25;;;;;;;;;;6114472;29;20450;-92
2024/01/11 13:34:38;;;;;;;8.43;7.95;;;;;;;;;;6125361;28;20123;-92
2024/01/11 13:37:40;;;;;;;9.07;8.38;;;;;;;;;;6122693;29;20410;-92
2024/01/11 13:40:43;;;;;;;9.95;8.38;;;;;;;;;;6119365;29;20051;-93
2024/01/11 13:43:45;;;;;;;8.68;8.25;;;;;;;;;;6119889;29;20063;-93
2024/01/11 13:46:46;;;;;;;7.28;6.85;;;;;;;;;;6112881;29;20072;-93
2024/01/11 13:49:48;;;;;;;8.52;6.93;;;;;;;;;;6116002;29;20047;-93
2024/01/11 13:52:50;;;;;;;8.43;7.85;;;;;;;;;;6118812;29;20051;-93
2024/01/11 13:55:52;;;;;;;9.27;8.55;;;;;;;;;;6116912;29;20078;-93
2024/01/11 13:58:55;;;;;;;9.52;8.93;;;;;;;;;;6114381;29;20126;-93
2024/01/11 14:01:57;;;;;;;10.07;9.27;;;;;;;;;;6112152;29;20426;-93
2024/01/11 14:04:59;;;;;;;8.23;7.78;;;;;;;;;;6119355;29;20046;-93
2024/01/11 14:08:01;;;;;;;11.98;10.82;;;;;;;;;;6119346;29;20055;-92
2024/01/11 14:11:03;;;;;;;8.95;8.40;;;;;;;;;;6116487;29;20130;-92
2024/01/11 14:14:05;;;;;;;9.98;8.95;;;;;;;;;;6118988;29;20048;-93
2024/01/11 14:17:08;;;;;;;8.07;7.72;;;;;;;;;;6119456;29;20040;-92
2024/01/11 14:20:15;;;;;;;8.65;8.15;;;;;;;;;;6122525;29;20074;-92
2024/01/11 14:23:18;;;;;;;11.52;10.38;;;;;;;;;;6120272;29;20044;-93
2024/01/11 14:26:20;;;;;;;7.78;7.28;;;;;;;;;;6118100;29;20055;-93
2024/01/11 14:29:22;;;;;;;10.10;9.40;;;;;;;;;;6116679;29;20483;-94
2024/01/11 14:32:26;;;;;;;10.27;9.63;;;;;;;;;;6117839;29;20855;-94
2024/01/11 14:35:37;;;;;;;8.52;7.93;;;;;;;;;;6103286;29;20044;-93
2024/01/11 14:38:39;;;;;;;9.98;9.38;;;;;;;;;;6119510;29;20047;-93
2024/01/11 14:41:41;;;;;;;9.35;8.63;;;;;;;;;;6098466;29;20052;-93
2024/01/11 14:44:43;;;;;;;7.85;7.35;;;;;;;;;;6116732;29;20048;-93
2024/01/11 14:47:45;;;;;;;9.07;8.38;;;;;;;;;;6115330;29;20040;-93
2024/01/11 14:50:48;;;;;;;8.23;7.72;;;;;;;;;;6114871;29;20044;-93
